createdAt,value
2019-05-10T00:03:11.645Z,40.97
2019-05-10T00:08:35.062Z,40.73
2019-05-10T00:13:50.722Z,42.03
2019-05-10T00:18:55.783Z,44.93
2019-05-10T00:24:01.023Z,48.17
2019-05-10T00:29:05.825Z,46.47
2019-05-10T00:34:10.937Z,46.97
2019-05-10T00:39:19.274Z,47.30
2019-05-10T00:44:23.120Z,48.10
2019-05-10T00:49:28.247Z,48.17
2019-05-10T00:54:33.218Z,48.53
2019-05-10T00:59:38.375Z,43.97
2019-05-10T01:04:43.312Z,42.77
2019-05-10T01:09:49.439Z,43.23
2019-05-10T01:14:55.270Z,44.23
2019-05-10T01:20:01.098Z,44.33
2019-05-10T01:25:07.515Z,49.60
2019-05-10T01:30:13.187Z,54.67
2019-05-10T01:35:18.523Z,39.37
2019-05-10T01:40:23.687Z,44.73
2019-05-10T01:45:29.175Z,55.57
2019-05-10T01:50:34.377Z,50.37
2019-05-10T01:55:51.619Z,52.70
2019-05-10T02:00:46.922Z,56.27
2019-05-10T02:05:52.070Z,55.13
2019-05-10T02:10:57.517Z,57.37
2019-05-10T02:16:03.391Z,58.23
2019-05-10T02:21:08.565Z,61.20
2019-05-10T02:26:13.738Z,62.47
2019-05-10T02:31:21.621Z,56.73
2019-05-10T02:36:25.548Z,60.63
2019-05-10T02:41:30.738Z,58.97
2019-05-10T02:46:36.183Z,61.13
2019-05-10T02:51:41.449Z,53.37
2019-05-10T02:56:47.465Z,59.83
2019-05-10T03:02:12.859Z,56.00
2019-05-10T03:07:18.780Z,60.13
2019-05-10T03:12:26.481Z,68.70
2019-05-10T03:17:31.526Z,69.87
2019-05-10T03:22:42.472Z,71.60
2019-05-10T03:27:47.641Z,79.47
2019-05-10T03:33:12.026Z,73.90
2019-05-10T03:38:17.161Z,75.57
2019-05-10T03:43:22.355Z,79.40
2019-05-10T03:48:27.483Z,87.07
2019-05-10T03:53:32.779Z,84.80
2019-05-10T03:58:37.923Z,85.03
2019-05-10T04:03:43.124Z,87.33
2019-05-10T04:08:48.574Z,82.40
2019-05-10T04:13:53.817Z,85.70
2019-05-10T04:18:59.073Z,82.80
2019-05-10T04:24:23.519Z,85.80
2019-05-10T04:29:28.787Z,85.20
2019-05-10T04:34:34.034Z,79.93
2019-05-10T04:39:39.279Z,80.30
2019-05-10T04:44:44.474Z,74.13
2019-05-10T04:49:49.453Z,73.40
2019-05-10T04:54:54.820Z,70.47
2019-05-10T05:00:00.311Z,71.23
2019-05-10T05:05:07.683Z,74.37
2019-05-10T05:10:13.506Z,73.37
2019-05-10T05:15:18.969Z,77.43
2019-05-10T05:20:24.186Z,73.27
2019-05-10T05:25:29.726Z,73.07
2019-05-10T05:30:38.548Z,71.63
2019-05-10T05:35:42.207Z,73.80
2019-05-10T05:40:47.561Z,73.70
2019-05-10T05:45:53.106Z,72.33
2019-05-10T05:50:58.152Z,67.83
2019-05-10T05:56:11.994Z,70.47
2019-05-10T06:01:10.152Z,66.40
2019-05-10T06:06:21.295Z,68.87
2019-05-10T06:11:22.406Z,72.53
2019-05-10T06:16:27.646Z,68.70
2019-05-10T06:21:32.846Z,66.40
2019-05-10T06:26:38.925Z,72.00
2019-05-10T06:31:44.888Z,70.70
2019-05-10T06:36:50.092Z,73.57
2019-05-10T06:42:14.529Z,73.50
2019-05-10T06:47:21.873Z,81.97
2019-05-10T06:52:27.795Z,80.37
2019-05-10T06:57:33.169Z,80.80
2019-05-10T07:02:38.735Z,80.60
2019-05-10T07:07:45.554Z,75.20
2019-05-10T07:12:56.494Z,77.70
2019-05-10T07:17:58.171Z,74.67
2019-05-10T07:23:06.330Z,77.53
2019-05-10T07:28:15.626Z,71.80
2019-05-10T07:33:17.454Z,68.43
2019-05-10T07:38:30.194Z,66.43
2019-05-10T07:43:30.212Z,61.03
2019-05-10T07:48:41.290Z,60.83
2019-05-10T07:53:43.130Z,60.37
2019-05-10T07:58:48.573Z,62.47
2019-05-10T08:03:54.095Z,49.13
2019-05-10T08:09:01.946Z,56.70
2019-05-10T08:14:10.757Z,44.90
2019-05-10T08:19:13.370Z,51.27
2019-05-10T08:24:18.985Z,42.27
2019-05-10T08:29:24.026Z,45.77
2019-05-10T08:34:35.551Z,44.23
2019-05-10T08:39:45.546Z,38.60
2019-05-10T08:44:43.690Z,41.03
2019-05-10T08:50:08.049Z,37.47
2019-05-10T08:54:56.731Z,36.97
2019-05-10T09:00:08.532Z,36.57
2019-05-10T09:05:09.173Z,38.17
2019-05-10T09:10:15.291Z,31.00
2019-05-10T09:15:22.286Z,32.43
2019-05-10T09:20:28.010Z,33.10
2019-05-10T09:25:33.802Z,32.40
2019-05-10T09:30:54.122Z,32.10
2019-05-10T09:35:51.478Z,26.87
2019-05-10T09:40:56.247Z,29.67
2019-05-10T09:46:02.537Z,26.53
2019-05-10T09:51:06.932Z,29.47
2019-05-10T09:56:12.492Z,25.43
2019-05-10T10:01:21.654Z,26.87
2019-05-10T10:06:25.051Z,23.93
2019-05-10T10:11:30.250Z,22.87
2019-05-10T10:16:35.890Z,21.90
2019-05-10T10:21:41.450Z,21.87
2019-05-10T10:26:48.125Z,20.43
2019-05-10T10:31:56.644Z,19.93
2019-05-10T10:37:01.090Z,23.43
2019-05-10T10:42:08.753Z,21.37
2019-05-10T10:47:13.770Z,23.97
2019-05-10T10:52:19.201Z,22.40
2019-05-10T10:57:24.369Z,20.57
2019-05-10T11:02:33.696Z,22.47
2019-05-10T11:07:41.072Z,17.77
2019-05-10T11:12:44.210Z,17.60
2019-05-10T11:17:50.576Z,15.57
2019-05-10T11:22:56.499Z,12.57
2019-05-10T11:28:02.020Z,13.53
2019-05-10T11:33:29.179Z,14.27
2019-05-10T11:38:27.851Z,17.13
2019-05-10T11:43:43.385Z,17.73
2019-05-10T11:48:51.034Z,16.97
2019-05-10T11:53:59.611Z,16.87
2019-05-10T11:59:03.213Z,17.83
2019-05-10T12:04:13.009Z,19.60
2019-05-10T12:09:15.803Z,17.33
2019-05-10T12:14:23.853Z,15.93
2019-05-10T12:19:36.850Z,15.23
2019-05-10T12:24:53.435Z,14.67
2019-05-10T12:29:46.487Z,13.10
2019-05-10T12:34:52.000Z,11.43
2019-05-10T12:40:07.623Z,10.27
2019-05-10T12:45:05.229Z,12.07
2019-05-10T12:50:10.789Z,11.17
2019-05-10T12:55:16.348Z,13.03
2019-05-10T13:00:21.828Z,10.90
2019-05-10T13:05:32.287Z,11.30
2019-05-10T13:10:37.367Z,10.97
2019-05-10T13:15:40.348Z,10.63
2019-05-10T13:20:45.949Z,11.57
2019-05-10T13:25:51.510Z,10.53
2019-05-10T13:30:59.968Z,9.63
2019-05-10T13:36:05.548Z,8.60
2019-05-10T13:41:11.028Z,8.93
2019-05-10T13:46:16.629Z,9.40
2019-05-10T13:51:22.188Z,9.00
2019-05-10T13:56:27.342Z,7.50
2019-05-10T14:01:32.726Z,6.43
2019-05-10T14:06:37.915Z,5.70
2019-05-10T14:11:46.854Z,6.37
2019-05-10T14:16:50.460Z,5.07
2019-05-10T14:21:55.996Z,4.70
2019-05-10T14:27:01.508Z,5.00
2019-05-10T14:32:06.952Z,4.47
2019-05-10T14:37:14.219Z,6.90
2019-05-10T14:42:24.143Z,6.43
2019-05-10T14:47:25.630Z,6.23
2019-05-10T14:52:30.748Z,5.03
2019-05-10T14:57:35.973Z,5.00
2019-05-10T15:02:41.184Z,5.10
2019-05-10T15:07:46.671Z,4.40
2019-05-10T15:12:51.870Z,4.00
2019-05-10T15:18:01.846Z,4.70
2019-05-10T15:23:04.022Z,4.77
2019-05-10T15:28:09.508Z,4.80
2019-05-10T15:33:15.068Z,4.73
2019-05-10T15:38:20.348Z,3.30
2019-05-10T15:43:25.868Z,3.50
2019-05-10T15:48:31.148Z,3.23
2019-05-10T15:53:37.163Z,3.17
2019-05-10T15:58:42.872Z,3.40
2019-05-10T16:03:48.388Z,4.07
2019-05-10T16:08:54.425Z,3.50
2019-05-10T16:14:00.033Z,3.30
2019-05-10T16:19:06.622Z,3.53
2019-05-10T16:24:13.467Z,4.07
2019-05-10T16:29:18.660Z,4.60
2019-05-10T16:34:26.463Z,4.37
2019-05-10T16:39:30.622Z,3.40
2019-05-10T16:44:35.601Z,4.20
2019-05-10T16:49:40.571Z,4.00
2019-05-10T16:54:45.695Z,4.73
2019-05-10T16:59:51.136Z,4.67
2019-05-10T17:04:56.484Z,4.90
2019-05-10T17:10:01.782Z,4.53
2019-05-10T17:15:08.782Z,4.53
2019-05-10T17:20:15.973Z,4.37
2019-05-10T17:25:22.739Z,4.30
2019-05-10T17:30:29.480Z,5.73
2019-05-10T17:35:36.720Z,4.87
2019-05-10T17:40:42.294Z,4.83
2019-05-10T17:45:48.783Z,5.77
2019-05-10T17:50:54.190Z,6.70
2019-05-10T17:56:02.611Z,5.50
2019-05-10T18:01:06.212Z,6.77
2019-05-10T18:06:22.927Z,7.03
2019-05-10T18:11:17.839Z,8.67
2019-05-10T18:16:23.059Z,8.17
2019-05-10T18:21:28.235Z,6.77
2019-05-10T18:26:34.023Z,8.87
2019-05-10T18:31:40.639Z,7.53
2019-05-10T18:36:52.893Z,8.60
2019-05-10T18:41:55.051Z,8.10
2019-05-10T18:47:01.690Z,8.87
2019-05-10T18:52:07.393Z,9.10
2019-05-10T18:57:18.822Z,9.90
2019-05-10T19:02:21.574Z,11.53
2019-05-10T19:07:27.191Z,10.27
2019-05-10T19:12:33.089Z,10.03
2019-05-10T19:17:40.492Z,10.10
2019-05-10T19:22:46.172Z,10.57
2019-05-10T19:27:51.359Z,10.23
2019-05-10T19:32:58.084Z,12.57
2019-05-10T19:38:03.479Z,12.77
2019-05-10T19:43:08.632Z,11.07
2019-05-10T19:48:14.198Z,9.30
2019-05-10T19:53:19.322Z,10.13
2019-05-10T19:58:26.373Z,10.53
2019-05-10T20:03:31.595Z,14.87
2019-05-10T20:08:37.060Z,14.90
2019-05-10T20:13:42.875Z,13.73
2019-05-10T20:18:48.442Z,15.00
2019-05-10T20:23:53.882Z,14.33
2019-05-10T20:28:59.169Z,14.60
2019-05-10T20:34:04.644Z,14.40
2019-05-10T20:39:10.083Z,13.33
2019-05-10T20:44:15.235Z,13.10
2019-05-10T20:49:20.808Z,12.13
2019-05-10T20:54:26.242Z,12.83
2019-05-10T20:59:31.683Z,14.07
2019-05-10T21:04:37.242Z,15.03
2019-05-10T21:09:42.563Z,19.13
2019-05-10T21:14:48.163Z,23.50
2019-05-10T21:19:53.843Z,25.63
2019-05-10T21:24:58.964Z,24.37
2019-05-10T21:30:05.603Z,20.37
2019-05-10T21:35:11.162Z,19.70
2019-05-10T21:40:17.016Z,18.73
2019-05-10T21:45:22.900Z,19.67
2019-05-10T21:50:28.035Z,18.13
2019-05-10T21:55:33.199Z,20.10
2019-05-10T22:00:40.151Z,18.70
2019-05-10T22:05:45.678Z,19.77
2019-05-10T22:10:51.045Z,20.50
2019-05-10T22:15:56.524Z,20.33
2019-05-10T22:21:02.130Z,19.60
2019-05-10T22:26:07.479Z,22.10
2019-05-10T22:31:12.939Z,19.57
2019-05-10T22:36:18.270Z,19.73
2019-05-10T22:41:23.432Z,22.17
2019-05-10T22:46:28.831Z,22.47
2019-05-10T22:51:34.034Z,22.30
2019-05-10T22:56:39.335Z,21.63
2019-05-10T23:01:44.681Z,20.87
2019-05-10T23:06:49.761Z,17.87
2019-05-10T23:11:55.683Z,18.73
2019-05-10T23:17:00.752Z,17.57
2019-05-10T23:22:06.207Z,15.43
2019-05-10T23:27:11.342Z,15.20
2019-05-10T23:32:16.889Z,15.40
2019-05-10T23:37:22.309Z,15.33
2019-05-10T23:42:27.673Z,14.57
2019-05-10T23:47:33.015Z,16.37
2019-05-10T23:52:38.579Z,16.40
2019-05-10T23:57:43.931Z,18.03
